F/V Le Natif 2 — FKVW — position and weather

sailwx.info

Track history (hours):
 
Tides and Currents Weather Stations Pressure Air Temp Water Temp Dewpoint Dewpoint Depression Visibility Wind Speed Wind Dir Waves Ship Positions

F/V Le Natif 2

Last reported at 2014-Jul-22 18:18 UTC. Time now 2014-Jul-22 18:56 UTC.
Position N 46°43' W 002°49'.

Length 16 m.

Type: Fishing. MMSI: 228131600.

Date/timePositionNaut miles runAvg speedWind from/ knotsBaromVisibWave heightAir tempDewpointWater temp
2014-Jul-22 18:18N 46°43' W 002°49'0 0.3
2014-Jul-22 17:32N 46°43' W 002°48'8 0.7
2014-Jul-22 06:10N 46°50' W 002°40'9 8.5
2014-Jul-22 05:04N 46°47' W 002°27'5 9.2
2014-Jul-22 04:32N 46°46' W 002°20'9 9.0
2014-Jul-22 03:33N 46°43' W 002°08'8 8.1
2014-Jul-22 02:33N 46°42' W 001°57'0 0.0
2014-Jul-22 01:33N 46°42' W 001°57'0 0.0
2014-Jul-22 00:33N 46°42' W 001°57'0 0.1
2014-Jul-21 23:33N 46°42' W 001°56'7 7.1
2014-Jul-21 22:33N 46°39' W 002°06'8 6.0
2014-Jul-21 21:18N 46°38' W 002°17'4 5.7
2014-Jul-21 20:31N 46°38' W 002°24'  
2014-Jul-18 10:33N 46°42' W 001°56'0 0.0
2014-Jul-18 09:33N 46°42' W 001°56'0 0.0
2014-Jul-18 08:33N 46°42' W 001°56'0 0.0
2014-Jul-18 07:32N 46°42' W 001°56'0 0.1
2014-Jul-18 06:33N 46°42' W 001°57'0 0.0
2014-Jul-18 05:33N 46°42' W 001°57'0 0.0
2014-Jul-17 21:25N 46°42' W 001°57'0 0.1
2014-Jul-17 20:33N 46°42' W 001°57'0 0.0
2014-Jul-17 19:33N 46°42' W 001°57'4 4.3
2014-Jul-17 18:33N 46°42' W 002°03'10 9.7
2014-Jul-17 17:33N 46°44' W 002°17'11 9.7
2014-Jul-17 16:26N 46°46' W 002°32'4 0.4
2014-Jul-17 06:33N 46°48' W 002°37'9 8.6
2014-Jul-17 05:33N 46°46' W 002°25'8 8.2
2014-Jul-17 04:33N 46°44' W 002°14'9 8.6
2014-Jul-17 03:33N 46°41' W 002°02'3 3.4
2014-Jul-17 02:33N 46°42' W 001°57'0 0.0
2014-Jul-17 01:33N 46°42' W 001°57'0 0.0
2014-Jul-17 00:33N 46°42' W 001°57'0 0.0
2014-Jul-16 23:34N 46°42' W 001°57'0 0.0
2014-Jul-16 22:33N 46°42' W 001°57'0 0.1
2014-Jul-16 21:33N 46°42' W 001°56'0 0.1
2014-Jul-16 20:33N 46°42' W 001°57'8 8.2
2014-Jul-16 19:33N 46°43' W 002°08'12 0.8
2014-Jul-16 05:28N 46°46' W 002°25'12 8.4
2014-Jul-16 04:04N 46°43' W 002°08'5 8.9
2014-Jul-16 03:33N 46°42' W 002°02'4 3.7
2014-Jul-16 02:33N 46°42' W 001°57'0 0.0
2014-Jul-16 01:33N 46°42' W 001°57'0 0.0
2014-Jul-16 00:33N 46°42' W 001°57'0 0.0
2014-Jul-15 23:33N 46°42' W 001°57'0 0.0
2014-Jul-15 22:33N 46°42' W 001°57'0 0.1
2014-Jul-15 21:33N 46°42' W 001°57'0 0.0
2014-Jul-15 20:33N 46°42' W 001°56'4 4.2
2014-Jul-15 19:33N 46°42' W 002°03'10 9.5
2014-Jul-15 18:33N 46°44' W 002°16'18 2.0
2014-Jul-15 09:13N 46°53' W 002°40'0 0.4
2014-Jul-15 08:25N 46°52' W 002°40'  
Track history (hours):
 
Tides and Currents Weather Stations Pressure Air Temp Water Temp Dewpoint Dewpoint Depression Visibility Wind Speed Wind Dir Waves Ship Positions

F/V Le Natif 2

Last reported at 2014-Jul-22 18:18 UTC. Time now 2014-Jul-22 18:56 UTC.
Position N 46°43' W 002°49'.

Length 16 m.

Type: Fishing. MMSI: 228131600.

Date/timePositionNaut miles runAvg speedWind from/ knotsBaromVisibWave heightAir tempDewpointWater temp
2014-Jul-22 18:18N 46°43' W 002°49'0 0.3
2014-Jul-22 17:32N 46°43' W 002°48'8 0.7
2014-Jul-22 06:10N 46°50' W 002°40'9 8.5
2014-Jul-22 05:04N 46°47' W 002°27'5 9.2
2014-Jul-22 04:32N 46°46' W 002°20'9 9.0
2014-Jul-22 03:33N 46°43' W 002°08'8 8.1
2014-Jul-22 02:33N 46°42' W 001°57'0 0.0
2014-Jul-22 01:33N 46°42' W 001°57'0 0.0
2014-Jul-22 00:33N 46°42' W 001°57'0 0.1
2014-Jul-21 23:33N 46°42' W 001°56'7 7.1
2014-Jul-21 22:33N 46°39' W 002°06'8 6.0
2014-Jul-21 21:18N 46°38' W 002°17'4 5.7
2014-Jul-21 20:31N 46°38' W 002°24'  
2014-Jul-18 10:33N 46°42' W 001°56'0 0.0
2014-Jul-18 09:33N 46°42' W 001°56'0 0.0
2014-Jul-18 08:33N 46°42' W 001°56'0 0.0
2014-Jul-18 07:32N 46°42' W 001°56'0 0.1
2014-Jul-18 06:33N 46°42' W 001°57'0 0.0
2014-Jul-18 05:33N 46°42' W 001°57'0 0.0
2014-Jul-17 21:25N 46°42' W 001°57'0 0.1
2014-Jul-17 20:33N 46°42' W 001°57'0 0.0
2014-Jul-17 19:33N 46°42' W 001°57'4 4.3
2014-Jul-17 18:33N 46°42' W 002°03'10 9.7
2014-Jul-17 17:33N 46°44' W 002°17'11 9.7
2014-Jul-17 16:26N 46°46' W 002°32'4 0.4
2014-Jul-17 06:33N 46°48' W 002°37'9 8.6
2014-Jul-17 05:33N 46°46' W 002°25'8 8.2
2014-Jul-17 04:33N 46°44' W 002°14'9 8.6
2014-Jul-17 03:33N 46°41' W 002°02'3 3.4
2014-Jul-17 02:33N 46°42' W 001°57'0 0.0
2014-Jul-17 01:33N 46°42' W 001°57'0 0.0
2014-Jul-17 00:33N 46°42' W 001°57'0 0.0
2014-Jul-16 23:34N 46°42' W 001°57'0 0.0
2014-Jul-16 22:33N 46°42' W 001°57'0 0.1
2014-Jul-16 21:33N 46°42' W 001°56'0 0.1
2014-Jul-16 20:33N 46°42' W 001°57'8 8.2
2014-Jul-16 19:33N 46°43' W 002°08'12 0.8
2014-Jul-16 05:28N 46°46' W 002°25'12 8.4
2014-Jul-16 04:04N 46°43' W 002°08'5 8.9
2014-Jul-16 03:33N 46°42' W 002°02'4 3.7
2014-Jul-16 02:33N 46°42' W 001°57'0 0.0
2014-Jul-16 01:33N 46°42' W 001°57'0 0.0
2014-Jul-16 00:33N 46°42' W 001°57'0 0.0
2014-Jul-15 23:33N 46°42' W 001°57'0 0.0
2014-Jul-15 22:33N 46°42' W 001°57'0 0.1
2014-Jul-15 21:33N 46°42' W 001°57'0 0.0
2014-Jul-15 20:33N 46°42' W 001°56'4 4.2
2014-Jul-15 19:33N 46°42' W 002°03'10 9.5
2014-Jul-15 18:33N 46°44' W 002°16'18 2.0
2014-Jul-15 09:13N 46°53' W 002°40'0 0.4
2014-Jul-15 08:25N 46°52' W 002°40'  

Dump ship's entire track history